Time;durP1;ratioP1;P1;durP2;ratioP2;P2;SDS_P1;SDS_P2;PMS_P1;PMS_P2;Temp;Humidity;BMP_temperature;BMP_pressure;BME280_temperature;BME280_humidity;BME280_pressure;Samples;Min_cycle;Max_cycle;Signal;HPM_P1;HPM_P2
2022/07/23 00:00:16;;;;;;;3.50;2.30;;;;;;;16.88;77.34;99017.66;25121;1315;3051037;-69
2022/07/23 00:02:46;;;;;;;5.50;1.60;;;;;;;16.75;78.45;99009.67;25031;1313;3026469;-71
2022/07/23 00:05:15;;;;;;;2.00;1.80;;;;;;;17.18;76.92;99013.63;25101;1315;3026414;-70
2022/07/23 00:07:45;;;;;;;6.20;2.40;;;;;;;17.41;75.94;99006.33;25091;1316;3050417;-67
2022/07/23 00:10:14;;;;;;;4.00;2.10;;;;;;;17.35;75.68;99007.83;25096;1316;3028080;-62
2022/07/23 00:12:44;;;;;;;5.70;2.30;;;;;;;17.15;76.27;99009.02;25215;1316;3070837;-72
2022/07/23 00:15:15;;;;;;;6.70;2.40;;;;;;;16.90;77.35;99008.48;25101;1316;3026717;-67
2022/07/23 00:17:44;;;;;;;3.30;1.70;;;;;;;16.72;78.39;99009.10;25342;1315;3026314;-72
2022/07/23 00:20:16;;;;;;;3.10;1.80;;;;;;;17.14;76.92;99003.77;25282;1316;3068444;-68
2022/07/23 00:22:49;;;;;;;3.00;2.20;;;;;;;17.40;75.59;99005.13;25097;1315;3028207;-69
2022/07/23 00:25:20;;;;;;;3.30;2.10;;;;;;;17.25;75.78;99010.16;25127;1316;3026341;-69
2022/07/23 00:27:49;;;;;;;5.80;2.00;;;;;;;16.91;76.98;99008.23;25163;1316;3026426;-73
2022/07/23 00:30:19;;;;;;;4.80;2.10;;;;;;;16.67;78.09;99010.25;25079;1316;3026683;-65
2022/07/23 00:32:49;;;;;;;7.60;2.10;;;;;;;16.57;78.77;99009.47;25057;1315;3026666;-76
2022/07/23 00:35:22;;;;;;;;;;;;;;;17.05;77.33;99012.08;25066;1316;3052267;-63
2022/07/23 00:37:53;;;;;;;5.50;2.10;;;;;;;17.25;76.16;99013.91;24997;1315;3029854;-70
2022/07/23 00:40:23;;;;;;;6.90;2.20;;;;;;;17.15;76.39;99014.13;25180;1315;3027672;-66
2022/07/23 00:42:52;;;;;;;8.30;3.00;;;;;;;16.96;76.87;99010.26;25181;1315;3028447;-70
2022/07/23 00:45:22;;;;;;;4.20;2.50;;;;;;;16.66;78.20;99019.40;25135;1315;3026416;-65
2022/07/23 00:47:51;;;;;;;2.30;1.90;;;;;;;16.59;78.57;99017.89;25160;1316;3026113;-66
2022/07/23 00:50:21;;;;;;;4.10;2.00;;;;;;;17.06;77.15;99017.41;25183;1316;3028780;-70
2022/07/23 00:52:51;;;;;;;7.80;2.10;;;;;;;17.30;76.12;99017.48;25116;1316;3027349;-63
2022/07/23 00:55:20;;;;;;;7.00;2.80;;;;;;;17.29;75.41;99024.63;25142;1316;3026410;-73
2022/07/23 00:59:07;;;;;;;7.10;2.30;;;;;;;16.91;76.87;99024.83;31539;1318;3026055;-70
2022/07/23 01:01:36;;;;;;;5.70;2.50;;;;;;;16.77;77.98;99027.04;24958;1318;3026868;-73
2022/07/23 01:04:05;;;;;;;4.00;2.50;;;;;;;17.09;76.93;99023.22;25003;1318;3026130;-69
2022/07/23 01:06:36;;;;;;;4.90;2.80;;;;;;;17.13;76.62;99025.05;25092;1318;3051538;-64
2022/07/23 01:09:05;;;;;;;7.40;3.70;;;;;;;17.05;76.54;99028.98;25170;1318;3026521;-62
2022/07/23 01:11:35;;;;;;;5.70;4.60;;;;;;;16.71;77.87;99032.02;24944;1318;3297287;-67
2022/07/23 01:14:14;;;;;;;8.40;3.90;;;;;;;16.62;78.62;99033.88;25109;1315;3057487;-66
2022/07/23 01:16:44;;;;;;;;;;;;;;;17.06;77.19;99033.56;25076;1315;3052375;-70
2022/07/23 01:19:15;;;;;;;7.70;4.60;;;;;;;17.18;76.21;99037.69;25014;1315;3028562;-68
2022/07/23 01:21:46;;;;;;;6.20;5.00;;;;;;;17.09;76.42;99041.10;25105;1315;3026525;-63
2022/07/23 01:24:19;;;;;;;14.10;6.80;;;;;;;16.89;76.92;99050.82;25117;1315;3028448;-68
2022/07/23 01:27:01;;;;;;;12.30;6.70;;;;;;;16.55;78.27;99051.50;25157;1315;3049147;-61
2022/07/23 01:29:30;;;;;;;12.70;7.00;;;;;;;16.47;79.05;99052.38;25184;1315;3028524;-64
2022/07/23 01:32:03;;;;;;;13.70;7.30;;;;;;;17.04;77.29;99049.16;25167;1315;3071802;-62
2022/07/23 01:34:32;;;;;;;12.60;7.80;;;;;;;17.11;76.61;99049.71;25367;1315;3026594;-61
2022/07/23 01:37:01;;;;;;;16.20;8.20;;;;;;;17.02;76.67;99046.66;25399;1315;3026625;-64
2022/07/23 01:39:31;;;;;;;16.90;7.80;;;;;;;16.79;77.52;99052.34;25148;1315;3069666;-68
2022/07/23 01:42:01;;;;;;;17.60;8.20;;;;;;;16.67;77.95;99054.34;25089;1315;3027100;-70
2022/07/23 01:44:31;;;;;;;8.60;4.30;;;;;;;16.46;79.23;99059.95;25054;1318;3027652;-72
2022/07/23 01:47:00;;;;;;;8.00;4.50;;;;;;;16.84;78.38;99060.20;25049;1315;3026498;-66
2022/07/23 01:49:29;;;;;;;10.40;4.90;;;;;;;17.00;77.21;99066.88;25060;1315;3048073;-68
2022/07/23 01:52:08;;;;;;;6.80;4.40;;;;;;;16.90;77.68;99072.54;25087;1315;3054821;-73
2022/07/23 01:54:47;;;;;;;9.70;4.20;;;;;;;16.85;77.57;99072.46;25137;1315;3055463;-64
2022/07/23 01:57:16;;;;;;;10.60;4.70;;;;;;;16.61;78.71;99074.45;25000;1315;3027210;-63
2022/07/23 01:59:47;;;;;;;7.40;3.90;;;;;;;16.51;79.36;99073.11;25045;1315;3028833;-65
2022/07/23 02:02:17;;;;;;;7.10;3.60;;;;;;;17.03;77.62;99068.99;25063;1315;3026949;-62
2022/07/23 02:04:46;;;;;;;7.40;4.10;;;;;;;17.23;76.34;99074.23;25035;1313;3026841;-69
2022/07/23 02:07:15;;;;;;;8.80;4.10;;;;;;;17.24;76.20;99077.92;25085;1313;3051535;-65
2022/07/23 02:09:44;;;;;;;8.60;4.60;;;;;;;17.02;76.59;99078.63;25026;1314;3026622;-72
2022/07/23 02:12:15;;;;;;;10.50;5.00;;;;;;;16.83;77.05;99072.43;25126;1313;3056437;-66
2022/07/23 02:14:52;;;;;;;5.60;3.90;;;;;;;16.62;78.28;99077.54;25051;1312;3052043;-70
2022/07/23 02:17:21;;;;;;;7.00;3.70;;;;;;;16.92;77.62;99080.14;25068;1315;3026492;-71
2022/07/23 02:19:50;;;;;;;5.80;3.80;;;;;;;17.06;76.40;99077.94;25054;1312;3026423;-68
2022/07/23 02:22:19;;;;;;;6.80;4.20;;;;;;;17.09;76.23;99075.52;25115;1312;3051629;-65
2022/07/23 02:24:49;;;;;;;6.80;4.30;;;;;;;16.90;76.88;99078.55;25110;1315;3026367;-63
2022/07/23 02:27:21;;;;;;;8.30;4.20;;;;;;;16.56;78.32;99077.56;25136;1313;3027499;-65
2022/07/23 02:29:51;;;;;;;4.50;2.90;;;;;;;16.51;78.67;99078.89;25129;1312;3027428;-67
2022/07/23 02:32:23;;;;;;;5.60;4.20;;;;;;;16.90;77.95;99081.36;25057;1315;3028076;-75
2022/07/23 02:34:52;;;;;;;9.30;3.90;;;;;;;17.18;76.52;99085.19;25098;1315;3053044;-66
2022/07/23 02:37:22;;;;;;;11.30;3.80;;;;;;;17.05;76.33;99084.59;25268;1315;3026213;-60
2022/07/23 02:39:51;;;;;;;5.80;3.90;;;;;;;16.90;76.77;99085.47;25369;1315;3026500;-68
2022/07/23 02:42:20;;;;;;;4.90;3.60;;;;;;;16.56;78.08;99092.91;25459;1312;3049969;-68
2022/07/23 02:44:52;;;;;;;5.10;2.30;;;;;;;16.52;78.57;99091.71;25106;1315;3026874;-69
2022/07/23 02:47:21;;;;;;;4.10;2.90;;;;;;;16.87;77.97;99098.46;25132;1315;3026309;-67
2022/07/23 02:49:50;;;;;;;8.30;2.80;;;;;;;17.10;76.58;99098.68;25091;1314;3049854;-72
2022/07/23 02:52:20;;;;;;;7.20;3.10;;;;;;;16.93;77.07;99098.09;25030;1315;3026526;-62
2022/07/23 02:54:49;;;;;;;6.20;3.20;;;;;;;16.71;78.17;99099.52;25087;1312;3026901;-71
2022/07/23 02:57:19;;;;;;;6.30;2.60;;;;;;;16.51;78.78;99096.98;25136;1315;3054120;-65
2022/07/23 02:59:48;;;;;;;4.60;2.00;;;;;;;16.32;79.81;99099.19;25048;1312;3026610;-69
2022/07/23 03:02:17;;;;;;;6.10;2.30;;;;;;;16.77;78.46;99097.91;25046;1315;3028479;-62
2022/07/23 03:04:46;;;;;;;5.80;2.80;;;;;;;16.96;77.43;99105.08;25127;1312;3026380;-66
2022/07/23 03:07:16;;;;;;;6.30;2.90;;;;;;;17.00;77.01;99099.75;25081;1315;3071299;-66
2022/07/23 03:09:45;;;;;;;5.60;3.10;;;;;;;16.77;77.53;99103.96;25053;1314;3026407;-60
2022/07/23 03:12:17;;;;;;;3.90;2.90;;;;;;;16.52;78.56;99103.63;25113;1312;3026859;-66
2022/07/23 03:14:47;;;;;;;5.80;2.50;;;;;;;16.35;79.58;99108.79;25118;1314;3028737;-73
2022/07/23 03:17:17;;;;;;;4.10;2.40;;;;;;;16.96;77.71;99103.79;25091;1313;3027683;-64
2022/07/23 03:19:46;;;;;;;3.90;3.00;;;;;;;17.16;76.27;99098.77;25102;1313;3026616;-70
2022/07/23 03:22:16;;;;;;;5.90;2.80;;;;;;;16.82;77.30;99101.16;25031;1315;3026650;-65
2022/07/23 03:24:53;;;;;;;3.20;2.90;;;;;;;16.69;77.72;99099.86;25071;1314;3058620;-72
2022/07/23 03:27:25;;;;;;;10.20;3.60;;;;;;;16.63;77.84;99109.25;25059;1313;3052231;-70
2022/07/23 03:29:57;;;;;;;4.20;2.30;;;;;;;16.47;79.07;99109.54;25121;1315;3026727;-68
2022/07/23 03:32:27;;;;;;;3.20;2.70;;;;;;;17.01;77.15;99113.45;25140;1315;3030587;-66
2022/07/23 03:34:56;;;;;;;4.20;3.20;;;;;;;17.13;76.31;99119.23;25104;1313;3026530;-64
2022/07/23 03:37:25;;;;;;;4.00;3.10;;;;;;;17.22;75.80;99115.02;25113;1313;3052512;-70
2022/07/23 03:39:55;;;;;;;5.20;3.50;;;;;;;17.01;76.41;99118.58;25116;1313;3026495;-59
2022/07/23 03:42:24;;;;;;;11.00;3.90;;;;;;;16.95;76.59;99117.67;25112;1313;3052534;-67
2022/07/23 03:44:53;;;;;;;3.40;2.80;;;;;;;16.67;78.10;99115.11;25093;1313;3026396;-70
2022/07/23 03:47:27;;;;;;;3.50;3.20;;;;;;;17.22;76.28;99119.13;25078;1313;3056664;-65
2022/07/23 03:49:56;;;;;;;6.50;3.30;;;;;;;17.29;75.66;99115.11;25070;1315;3026660;-75
2022/07/23 03:52:26;;;;;;;4.20;3.30;;;;;;;17.28;75.90;99113.73;25061;1315;3055603;-69
2022/07/23 03:54:55;;;;;;;6.00;3.70;;;;;;;17.26;75.58;99118.05;25084;1315;3027020;-69
2022/07/23 03:57:25;;;;;;;5.90;3.50;;;;;;;17.08;76.12;99118.80;25045;1315;3055489;-69
2022/07/23 03:59:55;;;;;;;3.10;2.50;;;;;;;17.15;75.78;99112.83;25102;1313;3026704;-65
2022/07/23 04:02:25;;;;;;;3.80;2.90;;;;;;;17.53;75.05;99114.29;25068;1315;3026524;-63
2022/07/23 04:04:54;;;;;;;8.80;5.00;;;;;;;17.69;74.04;99111.98;25101;1315;3026833;-69
2022/07/23 04:07:23;;;;;;;6.60;3.60;;;;;;;17.49;74.68;99121.39;25060;1315;3053445;-70
2022/07/23 04:09:55;;;;;;;4.60;3.70;;;;;;;17.36;74.89;99119.19;25126;1315;3026731;-66
2022/07/23 04:12:25;;;;;;;6.60;4.30;;;;;;;17.25;75.18;99120.95;25296;1314;3026673;-60
2022/07/23 04:14:58;;;;;;;5.30;4.40;;;;;;;16.89;76.85;99120.69;25316;1315;3027101;-60
2022/07/23 04:17:28;;;;;;;6.10;3.00;;;;;;;16.91;77.40;99119.87;25383;1315;3026385;-73
2022/07/23 04:19:58;;;;;;;6.50;3.40;;;;;;;17.45;75.26;99117.61;25393;1315;3026609;-58
2022/07/23 04:22:27;;;;;;;6.90;3.70;;;;;;;17.65;74.76;99116.80;25323;1315;3028631;-66
2022/07/23 04:24:56;;;;;;;4.80;3.90;;;;;;;17.82;73.89;99112.39;25102;1313;3026360;-71
2022/07/23 04:27:25;;;;;;;8.80;4.10;;;;;;;17.73;74.06;99117.00;25140;1315;3070725;-65
2022/07/23 04:29:55;;;;;;;7.00;4.20;;;;;;;17.44;75.21;99122.38;25112;1314;3026990;-62
2022/07/23 04:32:24;;;;;;;8.20;4.10;;;;;;;17.29;75.80;99119.52;25100;1315;3026353;-72
2022/07/23 04:34:54;;;;;;;4.40;3.40;;;;;;;17.34;76.03;99119.27;25047;1313;3070916;-65
2022/07/23 04:37:23;;;;;;;10.60;3.90;;;;;;;17.69;74.53;99119.77;25079;1315;3026534;-66
2022/07/23 04:39:52;;;;;;;6.20;4.50;;;;;;;17.80;73.91;99122.44;25061;1315;3053421;-67
2022/07/23 04:42:23;;;;;;;6.10;4.60;;;;;;;17.67;74.18;99125.52;25227;1315;3028332;-73
2022/07/23 04:44:52;;;;;;;8.50;4.50;;;;;;;17.52;75.24;99127.94;25364;1313;3026384;-60
2022/07/23 04:47:21;;;;;;;7.80;4.30;;;;;;;17.62;74.81;99130.00;25261;1315;3051026;-63
2022/07/23 04:49:50;;;;;;;5.40;3.60;;;;;;;17.59;74.90;99132.23;25073;1313;3028829;-70
2022/07/23 04:52:19;;;;;;;7.50;4.40;;;;;;;18.07;73.57;99131.77;25089;1315;3054873;-70
2022/07/23 04:54:48;;;;;;;6.30;4.40;;;;;;;18.35;72.67;99123.24;25132;1313;3026397;-68
2022/07/23 04:57:17;;;;;;;7.50;5.10;;;;;;;18.38;72.29;99120.64;25059;1315;3048963;-74
2022/07/23 04:59:47;;;;;;;6.30;4.80;;;;;;;18.28;72.48;99118.75;25091;1313;3026773;-69
2022/07/23 05:02:17;;;;;;;9.70;5.60;;;;;;;18.08;72.98;99136.09;25078;1313;3026680;-64
2022/07/23 05:04:48;;;;;;;7.70;5.50;;;;;;;17.79;74.10;99133.91;25094;1315;3026436;-65
2022/07/23 05:07:17;;;;;;;10.00;3.90;;;;;;;17.73;74.30;99140.12;25106;1314;3055106;-67
2022/07/23 05:09:48;;;;;;;8.10;4.70;;;;;;;18.24;73.22;99131.73;25121;1313;3026348;-63
2022/07/23 05:12:18;;;;;;;5.60;5.00;;;;;;;18.31;72.24;99135.27;25093;1314;3027464;-69
2022/07/23 05:14:47;;;;;;;6.70;5.30;;;;;;;18.22;72.32;99135.48;25083;1315;3026067;-73
2022/07/23 05:17:16;;;;;;;7.60;5.60;;;;;;;17.95;73.43;99136.88;25097;1317;3054256;-67
2022/07/23 05:19:49;;;;;;;8.20;5.60;;;;;;;17.72;74.53;99134.77;25005;1315;3028729;-74
2022/07/23 05:22:19;;;;;;;6.90;4.00;;;;;;;17.64;75.46;99135.98;25120;1313;3026415;-69
2022/07/23 05:24:48;;;;;;;9.70;5.40;;;;;;;18.27;73.31;99136.19;25043;1315;3028723;-62
2022/07/23 05:27:17;;;;;;;6.70;4.90;;;;;;;18.57;71.85;99134.92;25056;1315;3027052;-68
2022/07/23 05:29:48;;;;;;;9.50;5.00;;;;;;;18.42;72.16;99142.19;25128;1313;3029480;-67
2022/07/23 05:32:18;;;;;;;8.20;5.30;;;;;;;18.49;72.27;99139.02;25072;1313;3026304;-69
2022/07/23 05:34:54;;;;;;;6.00;5.10;;;;;;;18.52;72.30;99128.48;25042;1315;3056120;-59
2022/07/23 05:37:24;;;;;;;9.50;6.00;;;;;;;18.49;72.26;99132.61;25103;1315;3028140;-67
2022/07/23 05:39:53;;;;;;;8.70;4.40;;;;;;;18.42;71.94;99134.89;25054;1315;3026758;-73
2022/07/23 05:42:24;;;;;;;7.60;5.20;;;;;;;18.80;71.37;99124.25;25091;1315;3052751;-65
2022/07/23 05:44:53;;;;;;;5.60;4.70;;;;;;;19.08;70.06;99125.16;25085;1313;3027252;-67
2022/07/23 05:47:23;;;;;;;7.60;4.20;;;;;;;19.18;69.71;99124.55;25145;1312;3026668;-63
2022/07/23 05:49:52;;;;;;;7.30;5.20;;;;;;;19.29;69.30;99129.98;25044;1315;3054457;-63
2022/07/23 05:52:29;;;;;;;8.20;5.40;;;;;;;19.04;69.86;99129.16;25086;1313;3053474;-70
2022/07/23 05:55:20;;;;;;;10.60;6.00;;;;;;;19.03;70.38;99123.44;25099;1313;3070504;-69
2022/07/23 05:57:49;;;;;;;8.10;4.60;;;;;;;19.15;69.85;99128.23;25076;1315;3026282;-67
2022/07/23 06:00:18;;;;;;;6.10;5.10;;;;;;;19.66;68.29;99131.87;25244;1315;3053473;-62
2022/07/23 06:02:48;;;;;;;11.30;4.80;;;;;;;19.80;67.47;99131.85;25335;1315;3027251;-69
2022/07/23 06:05:18;;;;;;;6.50;4.80;;;;;;;19.88;67.37;99124.48;25153;1315;3027645;-71
2022/07/23 06:07:50;;;;;;;5.50;4.90;;;;;;;19.93;67.09;99127.50;25099;1312;3026203;-71
2022/07/23 06:10:20;;;;;;;6.00;5.40;;;;;;;19.76;67.59;99127.85;25076;1315;3026485;-63
2022/07/23 06:13:14;;;;;;;10.80;5.50;;;;;;;19.68;67.79;99136.45;25084;1312;3049901;-66
2022/07/23 06:15:45;;;;;;;7.00;5.40;;;;;;;19.53;68.30;99137.80;25112;1313;3027709;-65
2022/07/23 06:18:17;;;;;;;7.80;5.00;;;;;;;19.56;68.17;99148.24;25064;1312;3027043;-68
2022/07/23 06:20:46;;;;;;;7.10;5.60;;;;;;;19.56;68.56;99139.66;25171;1312;3026122;-71
2022/07/23 06:23:15;;;;;;;7.00;4.40;;;;;;;19.60;68.45;99142.40;25071;1312;3052809;-70
2022/07/23 06:25:46;;;;;;;6.40;4.50;;;;;;;20.18;66.77;99141.39;25097;1312;3026530;-66
2022/07/23 06:28:15;;;;;;;8.30;4.90;;;;;;;20.38;64.96;99140.22;25115;1312;3027014;-68
2022/07/23 06:30:48;;;;;;;17.50;5.40;;;;;;;20.41;65.07;99140.95;25069;1312;3052923;-66
2022/07/23 06:33:18;;;;;;;9.00;5.10;;;;;;;20.30;65.71;99145.87;25074;1315;3026223;-67
2022/07/23 06:35:47;;;;;;;8.10;5.80;;;;;;;20.35;65.81;99147.84;25052;1315;3026551;-69
2022/07/23 06:38:17;;;;;;;6.60;5.70;;;;;;;20.06;66.73;99148.51;25103;1312;3026511;-71
2022/07/23 06:40:46;;;;;;;7.00;5.30;;;;;;;19.88;66.76;99151.71;25078;1312;3026672;-65
2022/07/23 06:43:15;;;;;;;7.20;5.20;;;;;;;19.77;67.10;99156.81;25087;1315;3058040;-66
2022/07/23 06:45:47;;;;;;;5.60;5.10;;;;;;;19.81;67.32;99152.20;25108;1312;3026633;-66
2022/07/23 06:48:16;;;;;;;5.30;4.80;;;;;;;19.92;66.96;99148.73;25051;1315;3026327;-68
2022/07/23 06:50:45;;;;;;;5.30;4.80;;;;;;;19.89;66.47;99154.26;25089;1312;3028370;-67
2022/07/23 06:53:15;;;;;;;7.10;4.70;;;;;;;20.04;66.15;99158.03;25039;1312;3052089;-70
2022/07/23 06:55:44;;;;;;;6.50;5.20;;;;;;;20.27;65.16;99149.23;25074;1312;3027484;-67
2022/07/23 06:58:15;;;;;;;9.10;4.50;;;;;;;20.38;64.97;99163.33;25155;1312;3058104;-67
2022/07/23 07:00:44;;;;;;;9.90;5.10;;;;;;;20.41;64.40;99158.14;25036;1315;3027735;-65
2022/07/23 07:03:13;;;;;;;6.40;4.70;;;;;;;20.64;64.65;99161.48;25128;1312;3026300;-74
2022/07/23 07:05:42;;;;;;;3.90;3.00;;;;;;;20.81;64.17;99160.67;25072;1312;3058767;-66
2022/07/23 07:08:11;;;;;;;5.90;3.80;;;;;;;21.23;61.68;99164.89;25093;1312;3026867;-69
2022/07/23 07:10:43;;;;;;;4.80;4.00;;;;;;;21.79;60.41;99157.23;25065;1312;3053208;-62
2022/07/23 07:13:12;;;;;;;4.80;3.80;;;;;;;22.03;60.00;99162.59;25114;1312;3027067;-68
2022/07/23 07:15:46;;;;;;;6.80;3.70;;;;;;;21.85;59.71;99164.64;25134;1312;3053407;-69
2022/07/23 07:18:17;;;;;;;3.70;3.40;;;;;;;21.74;59.96;99161.73;25089;1312;3026530;-70
2022/07/23 07:20:46;;;;;;;3.70;3.30;;;;;;;21.77;59.44;99165.36;25083;1315;3028814;-71
2022/07/23 07:23:15;;;;;;;4.00;3.10;;;;;;;21.47;59.82;99170.00;25027;1313;3025975;-67
2022/07/23 07:25:44;;;;;;;4.50;3.80;;;;;;;21.55;60.65;99169.20;25104;1312;3054773;-69
2022/07/23 07:28:13;;;;;;;4.30;3.70;;;;;;;21.60;60.48;99169.92;25081;1312;3026509;-62
2022/07/23 07:30:42;;;;;;;5.90;3.70;;;;;;;21.71;59.43;99161.00;25129;1312;3051804;-70
2022/07/23 07:33:11;;;;;;;4.10;3.60;;;;;;;21.84;58.61;99164.58;25056;1312;3026596;-67
2022/07/23 07:35:40;;;;;;;6.70;3.40;;;;;;;21.83;59.13;99172.62;25122;1312;3050913;-64
2022/07/23 07:38:09;;;;;;;7.40;3.50;;;;;;;21.78;59.41;99167.87;25102;1312;3026423;-65
2022/07/23 07:40:38;;;;;;;5.70;3.60;;;;;;;21.98;58.96;99164.59;25080;1312;3070357;-70
2022/07/23 07:43:07;;;;;;;5.90;3.50;;;;;;;22.19;58.35;99169.35;25082;1312;3026638;-68
2022/07/23 07:45:37;;;;;;;3.90;3.20;;;;;;;22.02;57.96;99171.64;25129;1312;3052996;-73
2022/07/23 07:48:08;;;;;;;5.30;3.00;;;;;;;21.92;57.98;99171.69;25163;1311;3026476;-66
2022/07/23 07:50:37;;;;;;;9.60;4.00;;;;;;;21.75;58.30;99172.16;25104;1312;3052164;-70
2022/07/23 07:53:06;;;;;;;5.60;3.10;;;;;;;21.96;58.18;99171.08;25068;1312;3028882;-70
2022/07/23 07:55:35;;;;;;;7.90;3.70;;;;;;;22.07;57.79;99169.85;25127;1312;3052157;-62
2022/07/23 07:58:07;;;;;;;9.00;3.10;;;;;;;22.08;57.44;99172.38;25166;1312;3028634;-66
2022/07/23 08:00:36;;;;;;;3.70;3.10;;;;;;;21.99;56.65;99174.06;25088;1312;3026836;-70
2022/07/23 08:03:05;;;;;;;4.50;3.00;;;;;;;21.92;56.14;99180.77;25141;1312;3051454;-71
2022/07/23 08:05:34;;;;;;;4.10;2.90;;;;;;;21.96;55.75;99179.56;25061;1312;3027775;-70
2022/07/23 08:08:04;;;;;;;6.00;3.20;;;;;;;22.18;55.80;99174.08;25131;1312;3026066;-63
2022/07/23 08:10:34;;;;;;;4.10;2.70;;;;;;;22.47;54.87;99180.66;25087;1312;3050414;-65
2022/07/23 08:13:03;;;;;;;5.80;2.90;;;;;;;22.67;54.37;99177.77;25075;1312;3027442;-65
2022/07/23 08:15:36;;;;;;;7.60;2.60;;;;;;;22.88;53.73;99178.05;25157;1312;3025966;-63
2022/07/23 08:18:05;;;;;;;3.70;3.10;;;;;;;23.04;52.39;99178.66;25130;1313;3026087;-69
2022/07/23 08:20:34;;;;;;;11.20;6.30;;;;;;;23.06;51.88;99179.84;25139;1315;3026211;-70
2022/07/23 08:23:06;;;;;;;9.70;7.10;;;;;;;23.05;51.40;99176.38;25055;1312;3052991;-68
2022/07/23 08:25:38;;;;;;;7.90;5.50;;;;;;;23.28;50.90;99175.89;25054;1312;3029422;-69
2022/07/23 08:28:11;;;;;;;4.90;3.70;;;;;;;23.51;51.05;99174.00;25146;1312;3026712;-65
2022/07/23 08:30:41;;;;;;;7.50;5.30;;;;;;;23.47;51.19;99170.20;25088;1312;3054970;-69
2022/07/23 08:33:15;;;;;;;4.80;3.90;;;;;;;23.53;51.60;99175.46;25141;1312;3027095;-67
2022/07/23 08:35:46;;;;;;;;;;;;;;;23.49;51.57;99178.39;25135;1312;3059458;-62
2022/07/23 08:38:16;;;;;;;4.80;3.10;;;;;;;23.40;51.92;99187.90;25152;1311;3026226;-66
2022/07/23 08:40:47;;;;;;;5.20;3.20;;;;;;;23.05;52.32;99187.10;25117;1312;3026501;-68
2022/07/23 08:43:24;;;;;;;6.80;2.60;;;;;;;23.18;52.42;99182.73;25164;1312;3026812;-67
2022/07/23 08:45:56;;;;;;;5.20;2.50;;;;;;;23.41;51.21;99178.47;25087;1312;3071698;-69
2022/07/23 08:48:34;;;;;;;6.80;2.70;;;;;;;23.62;49.41;99183.68;25059;1315;3026738;-66
2022/07/23 08:51:04;;;;;;;2.90;2.50;;;;;;;23.62;49.63;99187.80;25109;1312;3053205;-67
2022/07/23 08:53:35;;;;;;;4.40;2.60;;;;;;;23.62;49.54;99178.57;25136;1312;3026941;-67
2022/07/23 08:56:04;;;;;;;3.10;2.10;;;;;;;23.28;50.42;99181.48;25099;1312;3026936;-61
2022/07/23 08:58:34;;;;;;;5.00;2.80;;;;;;;23.28;50.32;99175.19;25040;1314;3027052;-70
2022/07/23 09:01:03;;;;;;;4.60;3.20;;;;;;;23.58;50.15;99176.79;25136;1313;3052492;-63
2022/07/23 09:03:35;;;;;;;3.50;2.90;;;;;;;23.61;49.23;99179.16;25147;1315;3026291;-69
2022/07/23 09:06:05;;;;;;;5.50;3.00;;;;;;;23.95;49.27;99172.17;25121;1314;3026646;-68
2022/07/23 09:08:42;;;;;;;5.00;2.40;;;;;;;24.16;48.76;99173.71;25106;1315;3030005;-65
2022/07/23 09:11:13;;;;;;;4.80;3.50;;;;;;;23.90;48.47;99176.56;25105;1313;3051501;-69
2022/07/23 09:13:45;;;;;;;5.50;2.80;;;;;;;23.95;48.61;99176.78;25025;1318;3026345;-68
2022/07/23 09:16:30;;;;;;;5.30;2.40;;;;;;;23.99;47.53;99181.52;25129;1315;3048313;-64
2022/07/23 09:19:04;;;;;;;4.60;2.40;;;;;;;24.30;47.09;99170.48;25106;1314;3052885;-66
2022/07/23 09:21:38;;;;;;;4.90;2.30;;;;;;;24.44;47.09;99180.34;25171;1315;3051529;-70
2022/07/23 09:24:09;;;;;;;3.50;2.20;;;;;;;24.18;48.01;99177.83;25138;1315;3026468;-74
2022/07/23 09:26:46;;;;;;;3.30;2.40;;;;;;;24.05;48.00;99180.14;25064;1314;3026026;-72
2022/07/23 09:29:24;;;;;;;3.60;2.20;;;;;;;24.02;47.47;99176.23;25128;1313;3055408;-62
2022/07/23 09:31:54;;;;;;;5.20;2.00;;;;;;;24.05;47.13;99175.45;25144;1313;3051731;-71
2022/07/23 09:34:24;;;;;;;4.20;2.10;;;;;;;24.35;47.03;99168.72;25084;1315;3027649;-70
2022/07/23 09:36:58;;;;;;;3.10;1.80;;;;;;;24.59;46.16;99173.98;25075;1313;3026412;-62
2022/07/23 09:39:29;;;;;;;3.80;1.70;;;;;;;24.54;45.31;99167.67;25126;1313;3027161;-69
2022/07/23 09:42:13;;;;;;;2.80;1.60;;;;;;;24.63;45.18;99166.02;25078;1315;3026491;-65
2022/07/23 09:44:42;;;;;;;;;;;;;;;24.77;44.90;99163.56;25111;1314;3057381;-65
2022/07/23 09:47:12;;;;;;;3.20;1.80;;;;;;;24.70;45.08;99166.09;25045;1313;3026615;-66
2022/07/23 09:50:01;;;;;;;4.50;1.80;;;;;;;24.98;45.23;99164.52;25057;1313;3026113;-68
2022/07/23 09:52:32;;;;;;;2.40;1.80;;;;;;;25.11;44.77;99175.23;25074;1313;3053924;-62
2022/07/23 09:55:03;;;;;;;2.80;1.80;;;;;;;25.07;43.68;99170.71;25088;1313;3026460;-69
2022/07/23 09:57:32;;;;;;;2.60;1.90;;;;;;;25.39;43.51;99166.71;25085;1314;3026455;-68
2022/07/23 10:00:04;;;;;;;6.30;2.30;;;;;;;25.55;43.53;99165.61;25124;1313;3026856;-67
2022/07/23 10:02:34;;;;;;;4.60;1.80;;;;;;;25.45;43.82;99168.61;25008;1318;3068891;-69
2022/07/23 10:05:43;;;;;;;3.50;2.00;;;;;;;25.48;43.88;99168.05;24939;1319;3051008;-64
2022/07/23 10:08:33;;;;;;;2.80;1.60;;;;;;;25.18;43.49;99166.12;24946;1322;3055471;-68
2022/07/23 10:11:38;;;;;;;3.00;1.70;;;;;;;25.05;43.61;99159.70;25082;1313;3055139;-68
2022/07/23 10:14:15;;;;;;;2.10;1.60;;;;;;;24.94;44.66;99157.46;25073;1313;3058850;-72
2022/07/23 10:17:14;;;;;;;4.60;1.80;;;;;;;24.71;45.48;99162.59;25036;1318;3052796;-67
2022/07/23 10:19:44;;;;;;;2.10;1.80;;;;;;;24.85;45.73;99156.35;25139;1314;3026874;-70
2022/07/23 10:22:21;;;;;;;2.60;1.50;;;;;;;25.14;44.58;99155.71;25168;1313;3058509;-69
2022/07/23 10:24:59;;;;;;;3.90;2.00;;;;;;;25.03;44.36;99156.16;25160;1313;3049491;-66
2022/07/23 10:27:49;;;;;;;2.70;2.00;;;;;;;24.82;44.93;99143.60;25104;1314;3055876;-69
2022/07/23 10:30:20;;;;;;;4.50;1.90;;;;;;;24.62;45.88;99158.77;25016;1314;3054723;-67
2022/07/23 10:33:11;;;;;;;3.90;1.70;;;;;;;24.34;46.29;99152.78;25062;1318;3027928;-70
2022/07/23 10:35:47;;;;;;;5.50;2.00;;;;;;;24.49;46.05;99147.52;25192;1315;3048098;-64
2022/07/23 10:38:37;;;;;;;3.90;1.80;;;;;;;24.77;45.20;99144.21;25099;1313;3052639;-61
2022/07/23 10:41:07;;;;;;;2.70;1.80;;;;;;;25.27;44.19;99135.02;25040;1313;3055445;-69
2022/07/23 10:43:36;;;;;;;4.30;1.80;;;;;;;25.39;43.25;99136.27;25134;1313;3026574;-67
2022/07/23 10:46:36;;;;;;;3.70;1.80;;;;;;;25.23;44.10;99141.84;25072;1314;3026278;-68
2022/07/23 10:49:32;;;;;;;3.30;1.90;;;;;;;24.89;45.61;99146.88;25180;1313;3055124;-66
2022/07/23 10:52:21;;;;;;;3.20;1.90;;;;;;;24.60;45.93;99143.46;25123;1317;3059289;-70
2022/07/23 10:55:15;;;;;;;5.70;1.70;;;;;;;24.67;45.68;99135.11;25050;1313;3049990;-70
2022/07/23 10:57:50;;;;;;;3.50;2.10;;;;;;;24.71;45.65;99135.16;25098;1313;3026352;-66
2022/07/23 11:00:21;;;;;;;1.90;1.70;;;;;;;24.59;45.91;99135.52;25140;1312;3051874;-71
2022/07/23 11:03:01;;;;;;;2.80;2.00;;;;;;;24.33;46.40;99138.06;25145;1312;3026550;-72
2022/07/23 11:05:42;;;;;;;3.80;1.70;;;;;;;24.43;46.40;99137.21;25151;1312;3048781;-64
2022/07/23 11:08:17;;;;;;;4.60;2.00;;;;;;;24.45;46.50;99143.55;25128;1312;3052108;-68
2022/07/23 11:10:52;;;;;;;5.40;1.80;;;;;;;24.37;46.90;99133.81;25041;1312;3054941;-71
2022/07/23 11:13:21;;;;;;;6.80;2.00;;;;;;;24.61;46.38;99128.19;25072;1312;3057438;-71
2022/07/23 11:16:06;;;;;;;4.30;1.90;;;;;;;24.82;45.26;99127.67;25165;1312;3027114;-66
2022/07/23 11:18:44;;;;;;;5.50;2.30;;;;;;;24.95;45.15;99129.14;25086;1312;3055676;-68
2022/07/23 11:21:29;;;;;;;3.70;1.70;;;;;;;25.07;44.53;99129.38;25067;1312;3059591;-66
2022/07/23 11:24:07;;;;;;;3.10;1.90;;;;;;;24.84;44.38;99124.41;25061;1312;3049632;-65
2022/07/23 11:26:42;;;;;;;2.70;2.20;;;;;;;24.84;45.03;99130.64;25081;1312;3055196;-70
2022/07/23 11:29:36;;;;;;;3.50;2.10;;;;;;;24.83;45.68;99133.06;25117;1312;3054239;-68
2022/07/23 11:32:23;;;;;;;3.20;2.00;;;;;;;24.60;46.38;99128.59;25078;1312;3069412;-72
2022/07/23 11:34:53;;;;;;;2.70;2.00;;;;;;;24.38;46.73;99128.08;25085;1315;3050310;-68
2022/07/23 11:37:38;;;;;;;4.00;2.10;;;;;;;24.41;46.78;99123.64;25094;1312;3027058;-63
2022/07/23 11:40:09;;;;;;;3.90;2.10;;;;;;;24.27;46.77;99127.14;25108;1312;3055414;-61